Hanford, CA

12:15 AM PST on February 27, 2017 (GMT -0800)
Monroe Elementary | | Change Station

Elev 248 ft 36.35 °N, 119.65 °W | Updated 23 seconds ago

Mostly Cloudy
Mostly Cloudy
43.3 °F
Feels Like 43 °F
N
1.1
Wind Variable Wind from ESE

Today
High -- | Low -- °F
--% Chance of Precip.
Yesterday
High -- | Low -- °F
Precip. -- in
Pressure 29.93 in
Visibility 8.0 miles
Clouds Mostly Cloudy 8500 ft
Windchill 43 °F
Dew Point 39 °F
Humidity 84%
Rainfall 0.00 in
Snow Depth Not available.
6:31 AM 5:51 PM
New Moon, 1% visible
METAR KHJO 270753Z AUTO 12004KT 8SM BKN085 06/05 A2992 RMK AO2 SLP134 T00610050 401390006
Pressure 29.93 in
Visibility 8.0 miles
Clouds Mostly Cloudy 8500 ft
Windchill 43 °F
Dew Point 39 °F
Humidity 84%
Rainfall 0.00 in
Snow Depth Not available.
6:31 AM 5:51 PM
New Moon, 1% visible
METAR KHJO 270753Z AUTO 12004KT 8SM BKN085 06/05 A2992 RMK AO2 SLP134 T00610050 401390006

Get Your Daily Forecast Email!

Thanks for signing up!

Be on the lookout for a verification email in your inbox.

You'll start receiving the daily forecast at 8 AM.

×

10-Day Weather Forecast

Almanac

Astronomy

Feb. 27, 2017 Rise Set
Actual Time
Civil Twilight
Nautical Twilight
Astronomical Twilight
Moon
Length of Visible Light
Length of Day
Tomorrow will be .
, % of the Moon is Illuminated

Today's Extremes

State Highs State Lows

Community

WunderPhotos

Upload Photos

1,962,540 photos uploaded!

WunderBlog® & News

Nearby

Air Quality

  Air Quality AQ Index Pollutant
Not available.

Snow Depth

Station Depth Elevation

Earthquake Activity

City Distance Mag. Time & Date
Minimum magnitude displayed is 2.5.

Coastal Water Temperatures

Place Temperature

Stations

Nearby Weather Stations

Station Location Temp. Windchill Dew Point Humidity Wind Precip. Elev Updated Type
                   

Watches & Warnings

There are currently no watches in effect.